createdAt,value
2022-07-31T00:02:24.549Z,18.03
2022-07-31T00:04:56.971Z,18.05
2022-07-31T00:07:29.399Z,18.08
2022-07-31T00:10:01.815Z,18.14
2022-07-31T00:12:35.479Z,18.13
2022-07-31T00:15:09.470Z,18.14
2022-07-31T00:17:42.903Z,18.13
2022-07-31T00:20:16.946Z,18.09
2022-07-31T00:22:49.823Z,18.11
2022-07-31T00:25:22.246Z,18.07
2022-07-31T00:27:55.282Z,18.02
2022-07-31T00:30:27.651Z,18.03
2022-07-31T00:33:00.058Z,18.01
2022-07-31T00:35:32.602Z,18.06
2022-07-31T00:38:26.189Z,18.07
2022-07-31T00:40:57.394Z,18.08
2022-07-31T00:43:31.662Z,18.01
2022-07-31T00:46:04.157Z,17.76
2022-07-31T00:48:37.121Z,17.88
2022-07-31T00:51:10.415Z,17.92
2022-07-31T00:53:42.798Z,17.93
2022-07-31T00:56:15.228Z,17.83
2022-07-31T00:58:48.339Z,17.88
2022-07-31T01:01:21.303Z,17.80
2022-07-31T01:03:54.152Z,17.77
2022-07-31T01:06:26.691Z,17.72
2022-07-31T01:08:59.298Z,17.66
2022-07-31T01:11:41.791Z,17.63
2022-07-31T01:14:19.247Z,17.64
2022-07-31T01:16:53.861Z,17.65
2022-07-31T01:19:42.346Z,17.66
2022-07-31T01:22:32.913Z,17.64
2022-07-31T01:25:14.277Z,17.54
2022-07-31T01:28:02.734Z,17.55
2022-07-31T01:31:05.309Z,17.59
2022-07-31T01:33:51.992Z,17.48
2022-07-31T01:36:30.687Z,17.49
2022-07-31T01:39:04.144Z,17.44
2022-07-31T01:41:41.628Z,17.43
2022-07-31T01:44:17.518Z,17.30
2022-07-31T01:46:53.055Z,17.10
2022-07-31T01:49:28.399Z,17.14
2022-07-31T01:52:04.988Z,17.11
2022-07-31T01:54:38.674Z,16.98
2022-07-31T01:57:11.903Z,16.91
2022-07-31T01:59:55.602Z,16.97
2022-07-31T02:02:50.831Z,17.00
2022-07-31T02:05:27.744Z,17.05
2022-07-31T02:08:01.286Z,17.07
2022-07-31T02:10:35.799Z,17.04
2022-07-31T02:13:11.223Z,17.04
2022-07-31T02:15:45.626Z,17.02
2022-07-31T02:18:22.695Z,17.06
2022-07-31T02:21:10.443Z,16.97
2022-07-31T02:23:43.118Z,16.96
2022-07-31T02:26:16.662Z,16.91
2022-07-31T02:28:49.716Z,16.67
2022-07-31T02:31:24.032Z,16.61
2022-07-31T02:33:57.242Z,16.69
2022-07-31T02:36:33.876Z,16.75
2022-07-31T02:39:08.091Z,16.77
2022-07-31T02:41:41.603Z,16.70
2022-07-31T02:44:15.419Z,16.66
2022-07-31T02:47:01.756Z,16.63
2022-07-31T02:49:35.381Z,16.71
2022-07-31T02:52:09.102Z,16.69
2022-07-31T02:54:43.722Z,16.64
2022-07-31T02:57:17.116Z,16.53
2022-07-31T02:59:49.743Z,16.61
2022-07-31T03:02:22.250Z,16.42
2022-07-31T03:04:55.371Z,16.48
2022-07-31T03:07:30.847Z,16.55
2022-07-31T03:10:03.877Z,16.49
2022-07-31T03:12:50.886Z,16.53
2022-07-31T03:15:26.391Z,16.48
2022-07-31T03:18:00.535Z,16.50
2022-07-31T03:20:44.029Z,16.55
2022-07-31T03:23:16.657Z,16.54
2022-07-31T03:26:00.113Z,16.57
2022-07-31T03:28:33.683Z,16.54
2022-07-31T03:31:07.508Z,16.49
2022-07-31T03:33:39.936Z,16.55
2022-07-31T03:36:13.042Z,16.51
2022-07-31T03:38:50.457Z,16.51
2022-07-31T03:41:36.346Z,16.42
2022-07-31T03:44:09.359Z,16.47
2022-07-31T03:46:41.991Z,16.53
2022-07-31T03:49:15.007Z,16.49
2022-07-31T03:51:49.243Z,16.18
2022-07-31T03:54:22.203Z,16.16
2022-07-31T03:57:02.979Z,15.90
2022-07-31T03:59:37.207Z,16.21
2022-07-31T04:02:13.601Z,16.21
2022-07-31T04:04:52.727Z,16.02
2022-07-31T04:07:27.008Z,16.28
2022-07-31T04:09:59.659Z,16.36
2022-07-31T04:12:32.255Z,16.37
2022-07-31T04:15:05.618Z,16.28
2022-07-31T04:17:38.142Z,16.44
2022-07-31T04:20:12.136Z,16.55
2022-07-31T04:22:45.358Z,16.66
2022-07-31T04:25:33.835Z,16.73
2022-07-31T04:28:29.735Z,16.69
2022-07-31T04:31:02.222Z,16.72
2022-07-31T04:33:46.361Z,16.84
2022-07-31T04:36:29.910Z,16.97
2022-07-31T04:39:05.996Z,17.09
2022-07-31T04:41:39.156Z,17.17
2022-07-31T04:44:11.627Z,17.16
2022-07-31T04:47:16.179Z,17.21
2022-07-31T04:49:52.582Z,17.27
2022-07-31T04:52:25.053Z,17.30
2022-07-31T04:54:58.165Z,17.30
2022-07-31T04:57:32.599Z,17.38
2022-07-31T05:00:06.273Z,17.38
2022-07-31T05:02:39.706Z,17.41
2022-07-31T05:05:12.915Z,17.45
2022-07-31T05:07:47.634Z,17.31
2022-07-31T05:10:43.359Z,17.26
2022-07-31T05:13:16.144Z,17.47
2022-07-31T05:15:49.166Z,17.43
2022-07-31T05:18:21.601Z,17.36
2022-07-31T05:21:13.203Z,17.31
2022-07-31T05:24:22.605Z,17.51
2022-07-31T05:27:14.449Z,17.59
2022-07-31T05:29:48.019Z,17.67
2022-07-31T05:32:21.264Z,17.79
2022-07-31T05:34:53.719Z,17.88
2022-07-31T05:37:26.863Z,17.94
2022-07-31T05:39:59.329Z,18.05
2022-07-31T05:42:52.956Z,18.16
2022-07-31T05:45:47.856Z,18.28
2022-07-31T05:48:20.316Z,18.28
2022-07-31T05:50:53.419Z,18.29
2022-07-31T05:53:26.160Z,18.38
2022-07-31T05:56:17.297Z,18.44
2022-07-31T05:58:55.225Z,18.43
2022-07-31T06:01:27.885Z,18.50
2022-07-31T06:04:00.364Z,18.52
2022-07-31T06:06:37.806Z,18.61
2022-07-31T06:09:10.547Z,18.75
2022-07-31T06:11:47.310Z,18.94
2022-07-31T06:14:20.473Z,19.04
2022-07-31T06:17:05.370Z,18.95
2022-07-31T06:19:39.162Z,19.08
2022-07-31T06:22:11.648Z,19.19
2022-07-31T06:24:44.091Z,19.26
2022-07-31T06:27:34.049Z,19.37
2022-07-31T06:30:10.488Z,19.52
2022-07-31T06:32:43.205Z,19.58
2022-07-31T06:35:16.035Z,19.69
2022-07-31T06:38:11.344Z,19.79
2022-07-31T06:41:03.760Z,19.87
2022-07-31T06:43:43.924Z,19.97
2022-07-31T06:46:48.698Z,20.03
2022-07-31T06:49:47.855Z,20.15
2022-07-31T06:52:20.380Z,20.19
2022-07-31T06:54:52.859Z,20.29
2022-07-31T06:57:25.284Z,20.41
2022-07-31T06:59:57.857Z,20.42
2022-07-31T07:02:30.938Z,20.52
2022-07-31T07:05:06.470Z,20.60
2022-07-31T07:07:40.180Z,20.42
2022-07-31T07:10:14.367Z,20.50
2022-07-31T07:13:13.083Z,20.54
2022-07-31T07:15:46.879Z,20.58
2022-07-31T07:18:21.462Z,20.39
2022-07-31T07:20:56.714Z,20.55
2022-07-31T07:23:30.998Z,20.60
2022-07-31T07:26:21.221Z,20.62
2022-07-31T07:28:54.131Z,20.64
2022-07-31T07:31:26.543Z,20.69
2022-07-31T07:34:20.846Z,20.66
2022-07-31T07:36:53.375Z,20.66
2022-07-31T07:39:29.178Z,20.76
2022-07-31T07:42:02.381Z,20.80
2022-07-31T07:44:35.100Z,20.74
2022-07-31T07:47:07.984Z,20.78
2022-07-31T07:49:41.135Z,20.60
2022-07-31T07:52:30.353Z,20.45
2022-07-31T07:55:26.342Z,20.38
2022-07-31T07:58:17.438Z,20.45
2022-07-31T08:01:16.326Z,20.39
2022-07-31T08:03:53.525Z,20.38
2022-07-31T08:06:26.598Z,20.30
2022-07-31T08:08:59.017Z,20.28
2022-07-31T08:11:49.803Z,20.24
2022-07-31T08:14:30.411Z,20.20
2022-07-31T08:17:28.594Z,20.16
2022-07-31T08:20:00.969Z,20.20
2022-07-31T08:22:34.149Z,19.98
2022-07-31T08:25:07.271Z,20.19
2022-07-31T08:27:48.589Z,20.20
2022-07-31T08:30:21.212Z,20.26
2022-07-31T08:32:54.385Z,20.25
2022-07-31T08:35:34.712Z,20.28
2022-07-31T08:38:08.035Z,20.26
2022-07-31T08:40:56.691Z,20.35
2022-07-31T08:44:02.668Z,20.43
2022-07-31T08:46:23.841Z,20.52
2022-07-31T08:48:57.879Z,20.62
2022-07-31T08:51:31.988Z,20.74
2022-07-31T08:54:42.352Z,20.85
2022-07-31T08:57:15.458Z,20.81
2022-07-31T08:59:51.678Z,20.45
2022-07-31T09:02:24.241Z,20.66
2022-07-31T09:05:16.142Z,20.86
2022-07-31T09:07:48.627Z,20.87
2022-07-31T09:10:23.767Z,20.88
2022-07-31T09:12:57.212Z,20.71
2022-07-31T09:15:33.607Z,20.84
2022-07-31T09:18:18.923Z,20.77
2022-07-31T09:20:57.741Z,20.95
2022-07-31T09:23:31.415Z,20.89
2022-07-31T09:26:06.712Z,20.96
2022-07-31T09:28:40.947Z,20.91
2022-07-31T09:31:13.644Z,20.89
2022-07-31T09:34:00.938Z,20.84
2022-07-31T09:36:42.198Z,21.05
2022-07-31T09:39:51.835Z,21.22
2022-07-31T09:42:45.656Z,21.36
2022-07-31T09:45:29.780Z,21.35
2022-07-31T09:48:03.785Z,21.40
2022-07-31T09:50:36.259Z,21.29
2022-07-31T09:53:08.619Z,21.41
2022-07-31T09:55:49.627Z,21.49
2022-07-31T09:58:23.715Z,21.51
2022-07-31T10:00:57.319Z,21.46
2022-07-31T10:03:30.971Z,21.52
2022-07-31T10:06:05.333Z,21.14
2022-07-31T10:08:39.471Z,21.42
2022-07-31T10:11:39.246Z,21.48
2022-07-31T10:14:22.080Z,21.53
2022-07-31T10:16:58.711Z,21.40
2022-07-31T10:20:06.602Z,21.75
2022-07-31T10:22:58.715Z,22.12
2022-07-31T10:25:38.487Z,22.45
2022-07-31T10:28:11.663Z,22.56
2022-07-31T10:30:45.611Z,22.45
2022-07-31T10:33:42.644Z,22.85
2022-07-31T10:36:36.903Z,23.06
2022-07-31T10:39:35.562Z,23.32
2022-07-31T10:42:29.256Z,23.66
2022-07-31T10:45:06.335Z,23.58
2022-07-31T10:48:11.415Z,23.63
2022-07-31T10:51:08.928Z,23.62
2022-07-31T10:54:14.831Z,23.77
2022-07-31T10:57:24.235Z,23.78
2022-07-31T11:00:17.419Z,23.53
2022-07-31T11:03:16.846Z,23.56
2022-07-31T11:06:08.023Z,23.75
2022-07-31T11:08:58.926Z,23.94
2022-07-31T11:12:04.124Z,24.12
2022-07-31T11:14:51.605Z,24.31
2022-07-31T11:18:21.160Z,24.48
2022-07-31T11:20:31.352Z,24.66
2022-07-31T11:23:05.612Z,24.69
2022-07-31T11:25:38.311Z,24.83
2022-07-31T11:28:13.247Z,24.90
2022-07-31T11:30:50.499Z,24.94
2022-07-31T11:33:41.614Z,24.97
2022-07-31T11:36:19.356Z,24.88
2022-07-31T11:38:55.418Z,24.92
2022-07-31T11:41:29.097Z,24.93
2022-07-31T11:44:10.516Z,24.94
2022-07-31T11:46:42.929Z,24.86
2022-07-31T11:49:20.941Z,24.72
2022-07-31T11:52:30.622Z,24.42
2022-07-31T11:55:09.153Z,24.43
2022-07-31T11:57:52.185Z,24.52
2022-07-31T12:00:27.315Z,24.59
2022-07-31T12:03:02.570Z,24.49
2022-07-31T12:05:44.023Z,24.38
2022-07-31T12:08:17.266Z,24.36
2022-07-31T12:10:52.062Z,24.36
2022-07-31T12:13:25.985Z,24.54
2022-07-31T12:16:00.269Z,24.29
2022-07-31T12:18:46.170Z,24.11
2022-07-31T12:21:19.900Z,24.34
2022-07-31T12:23:53.429Z,24.50
2022-07-31T12:26:27.706Z,24.59
2022-07-31T12:29:01.440Z,24.87
2022-07-31T12:31:44.679Z,25.09
2022-07-31T12:34:27.505Z,25.35
2022-07-31T12:37:01.415Z,25.65
2022-07-31T12:39:53.810Z,25.70
2022-07-31T12:42:33.173Z,25.77
2022-07-31T12:45:17.883Z,25.79
2022-07-31T12:47:54.019Z,25.90
2022-07-31T12:50:28.649Z,25.81
2022-07-31T12:53:03.283Z,25.89
2022-07-31T12:55:36.512Z,25.87
2022-07-31T12:58:08.948Z,25.54
2022-07-31T13:00:41.348Z,25.61
2022-07-31T13:03:13.891Z,25.74
2022-07-31T13:05:50.326Z,25.87
2022-07-31T13:08:24.450Z,25.71
2022-07-31T13:10:57.550Z,25.57
2022-07-31T13:13:29.970Z,25.27
2022-07-31T13:16:02.403Z,25.10
2022-07-31T13:18:36.951Z,25.29
2022-07-31T13:21:09.389Z,25.56
2022-07-31T13:23:41.803Z,25.61
2022-07-31T13:26:14.914Z,25.82
2022-07-31T13:28:47.351Z,25.92
2022-07-31T13:31:19.786Z,25.87
2022-07-31T13:33:52.148Z,25.84
2022-07-31T13:36:25.055Z,25.66
2022-07-31T13:38:57.535Z,25.53
2022-07-31T13:41:31.419Z,25.62
2022-07-31T13:44:04.143Z,25.64
2022-07-31T13:46:36.585Z,25.28
2022-07-31T13:49:09.678Z,25.06
2022-07-31T13:51:42.140Z,25.10
2022-07-31T13:54:15.744Z,25.01
2022-07-31T13:56:48.800Z,25.09
2022-07-31T13:59:22.034Z,24.91
2022-07-31T14:02:03.259Z,24.86
2022-07-31T14:04:46.071Z,24.96
2022-07-31T14:07:18.529Z,25.02
2022-07-31T14:09:55.392Z,25.17
2022-07-31T14:12:28.706Z,25.07
2022-07-31T14:15:03.566Z,25.00
2022-07-31T14:17:36.121Z,25.28
2022-07-31T14:20:09.492Z,25.24
2022-07-31T14:22:42.575Z,25.12
2022-07-31T14:25:14.958Z,25.09
2022-07-31T14:27:49.587Z,25.13
2022-07-31T14:30:22.363Z,25.28
2022-07-31T14:32:55.399Z,25.43
2022-07-31T14:35:27.957Z,25.39
2022-07-31T14:38:03.917Z,25.31
2022-07-31T14:40:37.015Z,25.23
2022-07-31T14:43:10.990Z,25.30
2022-07-31T14:45:51.625Z,25.31
2022-07-31T14:48:24.523Z,25.43
2022-07-31T14:50:57.225Z,25.51
2022-07-31T14:53:29.625Z,25.55
2022-07-31T14:56:03.987Z,25.45
2022-07-31T14:58:57.299Z,25.18
2022-07-31T15:01:30.428Z,24.74
2022-07-31T15:04:03.868Z,24.68
2022-07-31T15:06:51.606Z,24.65
2022-07-31T15:09:28.123Z,24.58
2022-07-31T15:12:01.840Z,24.54
2022-07-31T15:14:35.486Z,24.63
2022-07-31T15:17:08.212Z,24.62
2022-07-31T15:19:40.816Z,24.71
2022-07-31T15:22:17.020Z,24.81
2022-07-31T15:24:50.264Z,24.88
2022-07-31T15:27:24.068Z,24.92
2022-07-31T15:30:05.641Z,25.02
2022-07-31T15:32:40.029Z,25.01
2022-07-31T15:35:13.555Z,24.98
2022-07-31T15:37:46.003Z,24.83
2022-07-31T15:40:18.419Z,24.67
2022-07-31T15:42:52.004Z,24.57
2022-07-31T15:45:25.075Z,24.42
2022-07-31T15:47:57.522Z,24.20
2022-07-31T15:50:29.907Z,24.36
2022-07-31T15:53:02.564Z,24.44
2022-07-31T15:55:35.018Z,24.43
2022-07-31T15:58:07.370Z,24.55
2022-07-31T16:00:40.481Z,24.53
2022-07-31T16:03:17.771Z,24.53
2022-07-31T16:05:55.842Z,24.39
2022-07-31T16:08:35.672Z,24.39
2022-07-31T16:11:08.407Z,24.44
2022-07-31T16:13:40.882Z,24.42
2022-07-31T16:16:13.947Z,24.31
2022-07-31T16:18:46.351Z,24.17
2022-07-31T16:21:18.766Z,24.24
2022-07-31T16:23:51.287Z,24.15
2022-07-31T16:26:23.688Z,24.08
2022-07-31T16:28:56.087Z,24.17
2022-07-31T16:31:30.584Z,24.17
2022-07-31T16:34:03.318Z,24.12
2022-07-31T16:36:35.801Z,24.11
2022-07-31T16:39:20.023Z,23.93
2022-07-31T16:41:54.885Z,23.87
2022-07-31T16:44:27.651Z,23.61
2022-07-31T16:47:00.731Z,23.74
2022-07-31T16:49:36.940Z,23.78
2022-07-31T16:52:09.603Z,23.67
2022-07-31T16:54:41.998Z,23.70
2022-07-31T16:57:14.627Z,23.54
2022-07-31T16:59:56.619Z,23.49
2022-07-31T17:02:30.682Z,23.46
2022-07-31T17:05:03.387Z,23.49
2022-07-31T17:07:35.856Z,23.37
2022-07-31T17:10:09.055Z,23.41
2022-07-31T17:12:41.434Z,23.35
2022-07-31T17:15:13.845Z,23.33
2022-07-31T17:17:47.096Z,23.37
2022-07-31T17:20:22.732Z,23.34
2022-07-31T17:22:55.119Z,23.34
2022-07-31T17:25:27.680Z,23.27
2022-07-31T17:28:00.069Z,23.23
2022-07-31T17:30:32.930Z,23.11
2022-07-31T17:33:06.033Z,23.01
2022-07-31T17:35:38.563Z,22.96
2022-07-31T17:38:10.943Z,22.96
2022-07-31T17:40:44.366Z,22.92
2022-07-31T17:43:16.881Z,22.79
2022-07-31T17:46:05.910Z,22.72
2022-07-31T17:48:42.328Z,22.62
2022-07-31T17:51:14.735Z,22.55
2022-07-31T17:53:55.514Z,22.43
2022-07-31T17:56:31.759Z,22.44
2022-07-31T17:59:05.063Z,22.28
2022-07-31T18:01:37.547Z,22.18
2022-07-31T18:04:10.819Z,22.06
2022-07-31T18:06:52.797Z,21.99
2022-07-31T18:09:27.867Z,21.75
2022-07-31T18:12:00.317Z,21.60
2022-07-31T18:14:32.740Z,21.52
2022-07-31T18:17:05.390Z,21.49
2022-07-31T18:19:38.492Z,21.46
2022-07-31T18:22:11.831Z,21.34
2022-07-31T18:24:44.225Z,21.25
2022-07-31T18:27:17.150Z,21.13
2022-07-31T18:29:56.202Z,21.09
2022-07-31T18:32:30.279Z,20.96
2022-07-31T18:35:04.412Z,20.92
2022-07-31T18:37:37.014Z,20.83
2022-07-31T18:40:10.354Z,20.74
2022-07-31T18:42:43.107Z,20.69
2022-07-31T18:45:15.755Z,20.64
2022-07-31T18:47:49.810Z,20.57
2022-07-31T18:50:58.409Z,20.47
2022-07-31T18:53:15.632Z,20.44
2022-07-31T18:55:48.062Z,20.30
2022-07-31T18:58:20.485Z,19.93
2022-07-31T19:00:55.084Z,19.84
2022-07-31T19:03:29.217Z,19.80
2022-07-31T19:06:02.909Z,19.70
2022-07-31T19:08:35.350Z,19.60
2022-07-31T19:11:07.855Z,19.42
2022-07-31T19:13:40.320Z,19.44
2022-07-31T19:16:12.723Z,19.40
2022-07-31T19:18:49.314Z,19.44
2022-07-31T19:21:42.086Z,19.43
2022-07-31T19:24:16.467Z,19.36
2022-07-31T19:26:49.587Z,19.34
2022-07-31T19:29:22.711Z,19.29
2022-07-31T19:31:55.068Z,19.28
2022-07-31T19:34:31.979Z,19.22
2022-07-31T19:37:08.572Z,19.12
2022-07-31T19:39:42.260Z,19.11
2022-07-31T19:42:14.622Z,18.96
2022-07-31T19:44:47.655Z,18.98
2022-07-31T19:47:21.502Z,18.82
2022-07-31T19:49:53.954Z,18.85
2022-07-31T19:52:27.082Z,18.83
2022-07-31T19:54:59.504Z,18.84
2022-07-31T19:57:31.913Z,18.81
2022-07-31T20:00:05.938Z,18.85
2022-07-31T20:02:39.438Z,18.92
2022-07-31T20:05:12.743Z,18.97
2022-07-31T20:07:45.837Z,18.95
2022-07-31T20:10:18.328Z,18.98
2022-07-31T20:12:50.759Z,18.91
2022-07-31T20:15:23.282Z,18.92
2022-07-31T20:17:56.795Z,18.90
2022-07-31T20:20:29.223Z,18.88
2022-07-31T20:23:02.241Z,18.79
2022-07-31T20:25:34.657Z,18.63
2022-07-31T20:28:07.019Z,18.50
2022-07-31T20:30:39.454Z,18.52
2022-07-31T20:33:13.418Z,18.50
2022-07-31T20:35:48.102Z,18.43
2022-07-31T20:38:23.659Z,18.47
2022-07-31T20:40:56.292Z,18.25
2022-07-31T20:43:29.921Z,18.28
2022-07-31T20:46:02.360Z,18.33
2022-07-31T20:48:38.071Z,18.34
2022-07-31T20:51:18.419Z,18.21
2022-07-31T20:53:51.991Z,18.18
2022-07-31T20:56:24.626Z,18.19
2022-07-31T20:58:57.375Z,18.19
2022-07-31T21:01:29.906Z,18.12
2022-07-31T21:04:02.346Z,18.09
2022-07-31T21:06:36.346Z,18.11
2022-07-31T21:09:09.650Z,18.10
2022-07-31T21:11:42.079Z,18.11
2022-07-31T21:14:14.431Z,18.10
2022-07-31T21:16:46.875Z,18.04
2022-07-31T21:19:19.642Z,18.06
2022-07-31T21:21:52.227Z,18.01
2022-07-31T21:24:25.908Z,17.95
2022-07-31T21:26:59.854Z,17.79
2022-07-31T21:29:32.841Z,17.88
2022-07-31T21:32:06.651Z,17.80
2022-07-31T21:34:39.807Z,17.75
2022-07-31T21:37:16.032Z,17.70
2022-07-31T21:39:49.855Z,17.72
2022-07-31T21:42:22.831Z,17.71
2022-07-31T21:44:57.815Z,17.64
2022-07-31T21:47:52.849Z,17.64
2022-07-31T21:50:29.126Z,17.56
2022-07-31T21:53:01.892Z,17.53
2022-07-31T21:55:35.070Z,17.44
2022-07-31T21:58:08.767Z,17.37
2022-07-31T22:00:41.557Z,17.41
2022-07-31T22:03:14.123Z,17.37
2022-07-31T22:06:13.075Z,17.31
2022-07-31T22:08:45.476Z,17.21
2022-07-31T22:11:18.550Z,17.08
2022-07-31T22:13:51.140Z,17.07
2022-07-31T22:16:23.562Z,17.08
2022-07-31T22:18:56.321Z,17.03
2022-07-31T22:21:29.079Z,17.03
2022-07-31T22:24:02.131Z,17.04
2022-07-31T22:26:35.672Z,16.98
2022-07-31T22:29:08.510Z,16.92
2022-07-31T22:31:49.759Z,16.90
2022-07-31T22:34:36.997Z,16.72
2022-07-31T22:37:10.506Z,16.72
2022-07-31T22:39:45.279Z,16.72
2022-07-31T22:42:19.031Z,16.69
2022-07-31T22:44:51.567Z,16.64
2022-07-31T22:47:26.447Z,16.54
2022-07-31T22:49:59.119Z,16.58
2022-07-31T22:52:35.203Z,16.57
2022-07-31T22:55:10.625Z,16.49
2022-07-31T22:57:44.315Z,16.43
2022-07-31T23:00:17.741Z,16.39
2022-07-31T23:02:50.211Z,16.31
2022-07-31T23:05:22.759Z,16.34
2022-07-31T23:07:55.182Z,16.37
2022-07-31T23:10:27.586Z,16.35
2022-07-31T23:13:00.726Z,16.34
2022-07-31T23:15:33.119Z,16.27
2022-07-31T23:18:05.543Z,16.25
2022-07-31T23:20:37.964Z,16.23
2022-07-31T23:23:10.390Z,16.20
2022-07-31T23:25:42.812Z,16.19
2022-07-31T23:28:15.945Z,16.06
2022-07-31T23:30:48.322Z,15.94
2022-07-31T23:33:20.753Z,15.87
2022-07-31T23:35:53.212Z,15.72
2022-07-31T23:38:25.779Z,15.70
2022-07-31T23:40:58.143Z,15.65
2022-07-31T23:43:31.352Z,15.67
2022-07-31T23:46:04.397Z,15.69
2022-07-31T23:48:39.454Z,15.68
2022-07-31T23:51:11.878Z,15.69
2022-07-31T23:53:44.291Z,15.65
2022-07-31T23:56:19.719Z,15.58
2022-07-31T23:58:53.010Z,15.65
